Time;durP1;ratioP1;P1;durP2;ratioP2;P2;SDS_P1;SDS_P2;PMS_P1;PMS_P2;Temp;Humidity;BMP_temperature;BMP_pressure;BME280_temperature;BME280_humidity;BME280_pressure;Samples;Min_cycle;Max_cycle;Signal;HPM_P1;HPM_P2
2022/01/21 00:01:17;;;;;;;;;;;;;;;2.96;59.98;99474.73;1762124;80;20152;-78
2022/01/21 00:03:42;;;;;;;;;;;;;;;2.88;60.16;99481.39;1771373;80;20785;-80
2022/01/21 00:06:09;;;;;;;;;;;;;;;2.92;60.23;99499.39;1766261;80;20173;-79
2022/01/21 00:08:38;;;;;;;;;;;;;;;2.92;59.95;99499.39;1774782;80;20216;-80
2022/01/21 00:11:04;;;;;;;;;;;;;;;2.94;60.01;99486.59;1771655;79;21756;-79
2022/01/21 00:13:34;;;;;;;;;;;;;;;2.78;61.15;99505.26;1769018;80;20139;-79
2022/01/21 00:16:05;;;;;;;;;;;;;;;2.82;60.26;99503.22;1765842;80;20208;-79
2022/01/21 00:18:31;;;;;;;;;;;;;;;2.29;61.79;99515.61;1764803;79;20176;-78
2022/01/21 00:31:53;;;;;;;;;;;;;;;3.04;59.95;99522.70;1767839;80;20577;-78
2022/01/21 00:34:19;;;;;;;;;;;;;;;3.09;59.63;99524.94;1757529;80;20147;-78
2022/01/21 00:36:44;;;;;;;;;;;;;;;2.74;60.60;99515.56;1762555;79;20999;-78
2022/01/21 00:39:11;;;;;;;;;;;;;;;2.73;60.28;99519.11;1779559;80;20158;-78
2022/01/21 00:41:42;;;;;;;;;;;;;;;2.69;60.91;99530.27;1769368;80;20188;-78
2022/01/21 00:44:04;;;;;;;;;;;;;;;3.28;59.37;99520.39;1765009;80;20253;-78
2022/01/21 00:46:30;;;;;;;;;;;;;;;2.67;60.22;99532.17;1771409;80;20125;-78
2022/01/21 00:48:55;;;;;;;;;;;;;;;2.76;60.30;99537.13;1766748;80;21083;-79
2022/01/21 00:51:21;;;;;;;;;;;;;;;2.77;59.96;99525.75;1763777;80;20814;-78
2022/01/21 00:53:46;;;;;;;;;;;;;;;3.30;58.66;99525.48;1771513;80;20193;-78
2022/01/21 00:56:12;;;;;;;;;;;;;;;2.76;58.88;99541.03;1763043;80;20192;-78
2022/01/21 00:58:37;;;;;;;;;;;;;;;2.96;58.63;99545.16;1768021;80;20761;-78
2022/01/21 01:01:03;;;;;;;;;;;;;;;2.69;58.88;99535.97;1775695;80;21071;-81
2022/01/21 01:03:28;;;;;;;;;;;;;;;2.51;59.14;99557.28;1774718;80;20213;-82
2022/01/21 01:05:54;;;;;;;;;;;;;;;2.95;58.14;99538.27;1776046;80;20927;-79
2022/01/21 01:08:20;;;;;;;;;;;;;;;2.90;58.20;99544.34;1766051;80;20145;-79
2022/01/21 01:21:18;;;;;;;;;;;;;;;2.56;58.18;99545.69;1769112;80;20644;-79
2022/01/21 01:24:04;;;;;;;;;;;;;;;2.76;57.61;99524.08;1762041;79;20798;-79
2022/01/21 01:29:01;;;;;;;;;;;;;;;2.45;57.78;99529.09;1745328;80;20319;-80
2022/01/21 01:31:27;;;;;;;;;;;;;;;2.67;57.50;99526.11;1756547;80;20177;-81
2022/01/21 01:33:58;;;;;;;;;;;;;;;2.97;56.84;99562.47;1744424;80;20568;-80
2022/01/21 01:36:20;;;;;;;;;;;;;;;2.85;56.81;99539.00;1747372;80;20434;-79
2022/01/21 01:41:16;;;;;;;;;;;;;;;2.85;57.33;99531.66;1751056;80;20217;-79
2022/01/21 01:51:52;;;;;;;;;;;;;;;2.18;59.27;99525.56;1744002;80;20488;-79
2022/01/21 01:54:18;;;;;;;;;;;;;;;2.51;58.92;99515.58;1742838;80;20193;-79
2022/01/21 01:56:47;;;;;;;;;;;;;;;2.61;58.59;99516.17;1751235;80;20190;-81
2022/01/21 01:59:12;;;;;;;;;;;;;;;2.16;59.77;99527.47;1746668;80;20198;-79
2022/01/21 02:01:38;;;;;;;;;;;;;;;2.89;58.46;99510.92;1753338;79;20150;-79
2022/01/21 02:04:04;;;;;;;;;;;;;;;2.71;58.59;99522.81;1735213;81;21145;-79
2022/01/21 02:06:29;;;;;;;;;;;;;;;2.26;59.54;99541.91;1733663;81;20236;-78
2022/01/21 02:08:55;;;;;;;;;;;;;;;2.49;59.10;99531.83;1722349;81;20624;-79
2022/01/21 02:11:20;;;;;;;;;;;;;;;2.54;58.93;99521.53;1762106;80;20588;-81
2022/01/21 02:13:50;;;;;;;;;;;;;;;2.66;58.65;99507.53;1746873;81;20160;-78
2022/01/21 02:21:34;;;;;;;;;;;;;;;2.77;58.00;99507.50;1755626;80;20150;-78
2022/01/21 02:24:05;;;;;;;;;;;;;;;2.82;57.62;99540.55;1757605;80;20137;-79
2022/01/21 02:26:30;;;;;;;;;;;;;;;3.00;57.71;99516.09;1760359;80;20174;-79
2022/01/21 02:28:58;;;;;;;;;;;;;;;2.72;57.91;99512.72;1759527;80;21148;-79
2022/01/21 02:31:23;;;;;;;;;;;;;;;2.55;58.43;99500.56;1753575;80;20168;-78
2022/01/21 02:33:49;;;;;;;;;;;;;;;2.64;58.24;99515.92;1761184;80;20557;-78
2022/01/21 02:36:15;;;;;;;;;;;;;;;2.70;58.07;99508.92;1756332;80;20154;-82
2022/01/21 02:38:40;;;;;;;;;;;;;;;2.56;58.51;99519.62;1755950;80;20277;-79
2022/01/21 02:41:06;;;;;;;;;;;;;;;2.50;58.15;99533.50;1760172;80;21145;-80
2022/01/21 02:43:32;;;;;;;;;;;;;;;2.30;58.71;99492.50;1761199;80;20136;-79
2022/01/21 02:46:03;;;;;;;;;;;;;;;2.33;58.82;99495.72;1756265;80;20256;-79
2022/01/21 02:48:25;;;;;;;;;;;;;;;2.77;58.24;99495.77;1756673;80;20161;-82
2022/01/21 02:50:51;;;;;;;;;;;;;;;2.48;58.67;99487.16;1756395;80;20203;-78
2022/01/21 02:53:38;;;;;;;;;;;;;;;2.73;58.01;99524.33;1758785;80;21199;-83
2022/01/21 02:55:50;;;;;;;;;;;;;;;2.64;58.39;99480.73;1756552;80;20145;-80
2022/01/21 02:58:15;;;;;;;;;;;;;;;2.51;58.91;99488.22;1764663;80;20691;-80
2022/01/21 03:00:41;;;;;;;;;;;;;;;2.10;59.59;99511.82;1758605;80;20498;-80
2022/01/21 03:03:07;;;;;;;;;;;;;;;2.32;59.66;99510.17;1762477;80;20505;-82
2022/01/21 03:05:35;;;;;;;;;;;;;;;2.09;60.29;99512.76;1757117;80;21159;-81
2022/01/21 03:08:00;;;;;;;;;;;;;;;2.39;59.77;99506.12;1762351;80;20153;-79
2022/01/21 03:10:26;;;;;;;;;;;;;;;2.25;59.86;99507.22;1765295;80;20162;-80
2022/01/21 03:12:52;;;;;;;;;;;;;;;2.17;60.05;99520.47;1763138;80;20125;-80
2022/01/21 03:15:18;;;;;;;;;;;;;;;1.98;60.77;99504.95;1762492;80;20167;-80
2022/01/21 03:17:43;;;;;;;;;;;;;;;2.21;59.94;99507.58;1761486;80;21081;-79
2022/01/21 03:20:10;;;;;;;;;;;;;;;2.01;61.01;99513.83;1764346;80;20306;-79
2022/01/21 03:22:36;;;;;;;;;;;;;;;2.11;60.67;99521.30;1767774;80;20233;-79
2022/01/21 03:25:04;;;;;;;;;;;;;;;1.65;61.16;99522.17;1765784;80;20126;-78
2022/01/21 03:27:30;;;;;;;;;;;;;;;2.39;60.03;99515.23;1762453;80;20185;-79
2022/01/21 03:29:55;;;;;;;;;;;;;;;1.85;60.96;99515.92;1762076;80;21095;-79
2022/01/21 03:32:21;;;;;;;;;;;;;;;2.27;60.25;99509.67;1758953;80;20471;-79
2022/01/21 03:34:47;;;;;;;;;;;;;;;2.35;60.05;99522.95;1761177;80;20225;-80
2022/01/21 03:37:13;;;;;;;;;;;;;;;1.86;61.33;99541.84;1761086;80;20149;-78
2022/01/21 03:39:38;;;;;;;;;;;;;;;2.04;60.71;99527.91;1758894;80;20359;-81
2022/01/21 03:42:04;;;;;;;;;;;;;;;1.92;61.12;99543.16;1757958;80;21085;-78
2022/01/21 03:44:30;;;;;;;;;;;;;;;2.29;60.52;99537.77;1764984;80;20338;-78
2022/01/21 03:46:55;;;;;;;;;;;;;;;2.34;60.25;99548.64;1755103;80;20157;-78
2022/01/21 03:49:21;;;;;;;;;;;;;;;2.33;60.11;99511.80;1759293;80;20169;-78
2022/01/21 03:51:47;;;;;;;;;;;;;;;2.14;60.79;99527.58;1756808;80;20282;-78
2022/01/21 03:54:12;;;;;;;;;;;;;;;2.23;60.49;99536.93;1756743;80;20991;-78
2022/01/21 03:56:39;;;;;;;;;;;;;;;2.50;60.05;99537.86;1759905;80;20200;-78
2022/01/21 03:59:05;;;;;;;;;;;;;;;2.24;60.98;99530.78;1761003;80;20199;-79
2022/01/21 04:01:31;;;;;;;;;;;;;;;2.17;61.11;99543.91;1755030;80;20588;-79
2022/01/21 04:03:56;;;;;;;;;;;;;;;2.15;61.21;99544.03;1759995;80;20229;-78
2022/01/21 04:06:22;;;;;;;;;;;;;;;2.36;60.76;99587.13;1752884;80;21135;-79
2022/01/21 04:08:48;;;;;;;;;;;;;;;2.25;61.04;99535.87;1757098;80;20460;-78
2022/01/21 04:11:14;;;;;;;;;;;;;;;2.40;60.68;99546.05;1753176;80;21085;-80
2022/01/21 04:13:39;;;;;;;;;;;;;;;2.23;61.44;99530.41;1764797;80;20195;-79
2022/01/21 04:16:05;;;;;;;;;;;;;;;2.56;60.86;99525.65;1763747;80;20136;-81
2022/01/21 04:18:32;;;;;;;;;;;;;;;2.49;61.14;99537.52;1761778;80;21130;-78
2022/01/21 04:20:58;;;;;;;;;;;;;;;2.55;60.99;99534.89;1762048;80;20108;-78
2022/01/21 04:23:23;;;;;;;;;;;;;;;2.50;60.96;99540.02;1755043;80;20272;-79
2022/01/21 04:25:49;;;;;;;;;;;;;;;2.42;61.24;99554.57;1761234;80;20114;-78
2022/01/21 04:28:15;;;;;;;;;;;;;;;2.58;60.91;99608.48;1761121;80;20247;-80
2022/01/21 04:30:41;;;;;;;;;;;;;;;2.90;60.26;99561.28;1759993;80;22310;-82
2022/01/21 04:33:07;;;;;;;;;;;;;;;2.17;62.09;99558.23;1760545;80;20160;-81
2022/01/21 04:35:32;;;;;;;;;;;;;;;2.70;60.65;99566.28;1757774;80;20160;-79
2022/01/21 04:38:02;;;;;;;;;;;;;;;2.30;62.00;99571.97;1759625;80;20642;-79
2022/01/21 04:40:30;;;;;;;;;;;;;;;2.64;61.36;99568.06;1762062;80;20119;-80
2022/01/21 04:48:21;;;;;;;;;;;;;;;2.61;61.71;99585.24;1766407;80;20130;-81
2022/01/21 04:50:58;;;;;;;;;;;;;;;2.64;61.53;99600.64;1757702;80;20469;-81
2022/01/21 04:53:24;;;;;;;;;;;;;;;2.55;61.89;99570.08;1752979;80;20627;-79
2022/01/21 04:55:49;;;;;;;;;;;;;;;2.73;61.60;99589.50;1755982;80;21062;-79
2022/01/21 04:58:15;;;;;;;;;;;;;;;2.36;62.44;99611.88;1759991;80;20161;-80
2022/01/21 05:00:41;;;;;;;;;;;;;;;2.85;61.71;99565.08;1754766;80;20337;-79
2022/01/21 05:03:06;;;;;;;;;;;;;;;2.86;61.25;99602.43;1759096;80;20139;-79
2022/01/21 05:05:32;;;;;;;;;;;;;;;2.92;61.41;99575.02;1756908;80;20186;-78
2022/01/21 05:08:01;;;;;;;;;;;;;;;3.02;61.17;99585.09;1755052;80;21944;-78
2022/01/21 05:10:27;;;;;;;;;;;;;;;2.95;61.39;99580.84;1750945;80;20167;-79
2022/01/21 05:12:53;;;;;;;;;;;;;;;2.64;62.11;99607.16;1753073;80;20167;-79
2022/01/21 05:16:09;;;;;;;;;;;;;;;3.07;61.50;99605.11;1765693;80;20192;-79
2022/01/21 05:17:48;;;;;;;;;;;;;;;2.65;62.31;99587.98;1725234;80;20157;-78
2022/01/21 05:20:14;;;;;;;;;;;;;;;2.75;62.32;99608.48;1756553;80;21149;-79
2022/01/21 05:22:39;;;;;;;;;;;;;;;2.96;61.59;99589.00;1751753;80;20670;-79
2022/01/21 05:25:05;;;;;;;;;;;;;;;2.54;62.85;99629.69;1754030;80;20149;-80
2022/01/21 05:27:30;;;;;;;;;;;;;;;3.05;61.75;99596.59;1748646;80;20733;-79
2022/01/21 05:29:56;;;;;;;;;;;;;;;3.09;61.56;99618.03;1755443;80;20160;-79
2022/01/21 05:32:22;;;;;;;;;;;;;;;3.01;61.93;99599.08;1767486;80;21155;-81
2022/01/21 05:34:47;;;;;;;;;;;;;;;3.29;61.61;99592.97;1759217;80;20151;-80
2022/01/21 05:37:13;;;;;;;;;;;;;;;3.41;60.87;99607.64;1754712;80;20507;-77
2022/01/21 05:39:38;;;;;;;;;;;;;;;3.53;60.64;99607.14;1757504;80;20197;-79
2022/01/21 05:42:06;;;;;;;;;;;;;;;3.70;60.12;99591.41;1758761;80;20144;-76
2022/01/21 05:47:01;;;;;;;;;;;;;;;3.14;61.41;99591.95;1755340;80;20092;-80
2022/01/21 05:49:28;;;;;;;;;;;;;;;3.36;60.82;99595.45;1761946;80;20159;-82
2022/01/21 05:52:01;;;;;;;;;;;;;;;3.19;61.36;99606.75;1754017;80;20655;-80
2022/01/21 05:54:25;;;;;;;;;;;;;;;3.26;61.00;99598.43;1753857;80;20342;-78
2022/01/21 05:56:49;;;;;;;;;;;;;;;2.98;61.92;99600.62;1753742;80;20113;-78
2022/01/21 05:59:14;;;;;;;;;;;;;;;3.20;61.40;99604.50;1762316;80;20124;-77
2022/01/21 06:01:40;;;;;;;;;;;;;;;2.81;62.11;99615.83;1757963;80;20140;-80
2022/01/21 06:04:06;;;;;;;;;;;;;;;3.08;61.58;99617.67;1758792;80;20402;-78
2022/01/21 06:06:31;;;;;;;;;;;;;;;3.37;60.89;99608.83;1743443;80;20137;-78
2022/01/21 06:08:57;;;;;;;;;;;;;;;3.13;61.75;99618.16;1752076;80;21131;-81
2022/01/21 06:11:22;;;;;;;;;;;;;;;2.92;62.03;99602.41;1750893;80;20155;-79
2022/01/21 06:13:50;;;;;;;;;;;;;;;2.75;62.45;99609.79;1763451;80;20140;-76
2022/01/21 06:16:17;;;;;;;;;;;;;;;3.02;61.89;99602.05;1758236;80;20288;-79
2022/01/21 06:18:43;;;;;;;;;;;;;;;2.95;62.19;99606.08;1757542;80;20182;-78
2022/01/21 06:21:09;;;;;;;;;;;;;;;3.02;61.81;99615.09;1759559;80;21061;-82
2022/01/21 06:23:34;;;;;;;;;;;;;;;2.90;62.31;99617.36;1757424;80;20142;-79
2022/01/21 06:26:00;;;;;;;;;;;;;;;3.01;62.13;99625.16;1755740;80;20176;-78
2022/01/21 06:28:26;;;;;;;;;;;;;;;2.88;62.37;99627.42;1761247;80;20150;-82
2022/01/21 06:30:52;;;;;;;;;;;;;;;3.12;61.87;99631.66;1750752;80;20201;-79
2022/01/21 06:33:18;;;;;;;;;;;;;;;3.14;61.73;99628.47;1757104;80;21176;-81
2022/01/21 06:35:44;;;;;;;;;;;;;;;3.10;61.92;99636.17;1757530;80;20677;-80
2022/01/21 06:38:09;;;;;;;;;;;;;;;3.43;61.05;99635.74;1758824;80;20147;-79
2022/01/21 06:40:35;;;;;;;;;;;;;;;3.42;60.78;99648.46;1766867;80;20153;-79
2022/01/21 06:43:03;;;;;;;;;;;;;;;3.29;61.18;99642.55;1763608;80;20801;-80
2022/01/21 06:45:28;;;;;;;;;;;;;;;3.37;61.64;99655.80;1758366;80;20151;-81
2022/01/21 06:47:53;;;;;;;;;;;;;;;3.34;61.35;99646.91;1744968;80;20674;-80
2022/01/21 06:50:19;;;;;;;;;;;;;;;3.24;61.75;99655.95;1748258;80;20232;-75
2022/01/21 06:52:45;;;;;;;;;;;;;;;3.47;61.39;99646.30;1756266;80;20195;-81
2022/01/21 06:55:10;;;;;;;;;;;;;;;3.43;61.33;99642.27;1751306;80;20516;-80
2022/01/21 06:57:39;;;;;;;;;;;;;;;3.64;61.07;99655.88;1736051;81;21893;-82
2022/01/21 07:00:04;;;;;;;;;;;;;;;3.56;60.97;99659.10;1738871;81;20158;-78
2022/01/21 07:02:30;;;;;;;;;;;;;;;3.36;61.71;99664.61;1742633;81;20493;-81
2022/01/21 07:04:56;;;;;;;;;;;;;;;3.05;62.35;99661.80;1738206;81;20123;-81
2022/01/21 07:07:22;;;;;;;;;;;;;;;3.45;61.59;99665.64;1737042;81;20513;-80
2022/01/21 07:09:47;;;;;;;;;;;;;;;3.29;62.27;99674.68;1741115;81;20633;-79
2022/01/21 07:12:13;;;;;;;;;;;;;;;3.30;62.06;99665.09;1736547;81;20142;-78
2022/01/21 07:14:38;;;;;;;;;;;;;;;3.61;61.39;99667.88;1740782;81;20135;-84
2022/01/21 07:17:04;;;;;;;;;;;;;;;3.53;61.37;99679.75;1738959;81;20483;-77
2022/01/21 07:19:30;;;;;;;;;;;;;;;3.24;61.88;99682.88;1742244;81;20173;-82
2022/01/21 07:21:56;;;;;;;;;;;;;;;3.27;62.09;99681.81;1734097;81;21170;-82
2022/01/21 07:24:21;;;;;;;;;;;;;;;3.62;61.53;99691.25;1736152;81;20571;-82
2022/01/21 07:26:47;;;;;;;;;;;;;;;3.39;62.14;99700.91;1738551;81;20142;-81
2022/01/21 07:29:13;;;;;;;;;;;;;;;3.39;62.14;99706.95;1738462;81;20848;-81
2022/01/21 07:31:38;;;;;;;;;;;;;;;3.55;61.65;99710.47;1739854;80;20150;-80
2022/01/21 07:34:06;;;;;;;;;;;;;;;3.37;61.88;99693.65;1740096;82;20992;-78
2022/01/21 07:36:32;;;;;;;;;;;;;;;3.35;61.48;99693.77;1718908;82;20179;-83
2022/01/21 07:38:57;;;;;;;;;;;;;;;3.62;61.37;99698.23;1737839;80;21033;-80
2022/01/21 07:41:23;;;;;;;;;;;;;;;3.39;61.51;99700.42;1735565;80;20168;-79
2022/01/21 07:43:49;;;;;;;;;;;;;;;2.91;62.17;99729.86;1731943;80;20153;-79
2022/01/21 07:46:16;;;;;;;;;;;;;;;2.76;63.28;99696.16;1734102;82;22108;-81
2022/01/21 07:48:41;;;;;;;;;;;;;;;3.26;62.24;99717.98;1736832;82;20572;-79
2022/01/21 07:51:07;;;;;;;;;;;;;;;3.63;61.12;99705.13;1737711;82;20460;-79
2022/01/21 07:53:32;;;;;;;;;;;;;;;3.56;61.11;99700.39;1737095;81;20130;-79
2022/01/21 07:55:58;;;;;;;;;;;;;;;3.79;60.61;99693.78;1737921;81;20154;-80
2022/01/21 07:58:25;;;;;;;;;;;;;;;3.46;61.04;99726.86;1730791;82;21159;-80
2022/01/21 08:00:51;;;;;;;;;;;;;;;3.51;60.80;99720.81;1733428;82;20212;-80
2022/01/21 08:03:17;;;;;;;;;;;;;;;3.55;60.52;99698.72;1739298;82;20139;-82
2022/01/21 08:05:44;;;;;;;;;;;;;;;3.54;60.68;99702.30;1740754;82;20660;-79
2022/01/21 08:08:09;;;;;;;;;;;;;;;3.91;59.47;99712.37;1734133;82;20197;-78
2022/01/21 08:10:35;;;;;;;;;;;;;;;3.77;59.78;99700.92;1741416;82;21163;-79
2022/01/21 08:13:01;;;;;;;;;;;;;;;3.53;60.15;99716.30;1736384;80;20146;-81
2022/01/21 08:15:27;;;;;;;;;;;;;;;3.48;59.97;99714.53;1736991;80;20610;-79
2022/01/21 08:17:53;;;;;;;;;;;;;;;3.91;59.31;99705.84;1729175;82;20501;-79
2022/01/21 08:20:18;;;;;;;;;;;;;;;3.88;58.84;99720.47;1738054;82;20127;-79
2022/01/21 08:22:44;;;;;;;;;;;;;;;3.70;58.95;99709.73;1729350;80;21916;-79
2022/01/21 08:25:10;;;;;;;;;;;;;;;3.45;59.25;99734.35;1735978;81;20340;-82
2022/01/21 08:27:35;;;;;;;;;;;;;;;3.67;58.96;99705.23;1731070;81;20263;-81
2022/01/21 08:30:02;;;;;;;;;;;;;;;3.68;58.52;99727.77;1756427;80;20233;-80
2022/01/21 08:32:29;;;;;;;;;;;;;;;3.93;57.92;99725.31;1759644;80;20519;-81
2022/01/21 08:34:55;;;;;;;;;;;;;;;3.91;58.18;99707.64;1761442;80;21882;-79
2022/01/21 08:37:20;;;;;;;;;;;;;;;4.24;57.19;99727.59;1755743;80;20246;-81
2022/01/21 08:39:46;;;;;;;;;;;;;;;3.92;57.44;99716.66;1763523;80;20442;-77
2022/01/21 08:42:11;;;;;;;;;;;;;;;4.25;57.25;99729.23;1762413;80;20881;-82
2022/01/21 08:44:37;;;;;;;;;;;;;;;4.27;57.23;99718.20;1747454;80;20153;-80
2022/01/21 08:47:03;;;;;;;;;;;;;;;4.45;56.00;99731.52;1756186;80;21792;-79
2022/01/21 08:49:28;;;;;;;;;;;;;;;4.45;56.35;99718.93;1760727;80;20244;-79
2022/01/21 08:51:56;;;;;;;;;;;;;;;4.53;56.10;99733.49;1757943;80;20187;-81
2022/01/21 08:54:22;;;;;;;;;;;;;;;4.05;56.43;99780.98;1759440;80;20136;-81
2022/01/21 08:56:48;;;;;;;;;;;;;;;4.27;56.01;99751.33;1749578;80;20139;-82
2022/01/21 08:59:14;;;;;;;;;;;;;;;4.55;55.66;99752.48;1754520;80;21049;-80
2022/01/21 09:01:39;;;;;;;;;;;;;;;4.23;55.82;99732.46;1751315;80;20139;-81
2022/01/21 09:04:05;;;;;;;;;;;;;;;4.73;55.09;99741.48;1749589;80;20410;-81
2022/01/21 09:06:30;;;;;;;;;;;;;;;5.14;54.69;99734.50;1759300;80;20893;-79
2022/01/21 09:08:56;;;;;;;;;;;;;;;4.64;55.35;99741.27;1755004;80;20172;-79
2022/01/21 09:11:22;;;;;;;;;;;;;;;4.60;55.70;99739.88;1760901;80;22385;-81
2022/01/21 09:13:48;;;;;;;;;;;;;;;4.97;55.18;99742.02;1756901;80;20193;-80
2022/01/21 09:16:15;;;;;;;;;;;;;;;4.86;54.97;99760.39;1754259;80;20291;-80
2022/01/21 09:19:02;;;;;;;;;;;;;;;4.67;55.87;99772.39;1752885;80;20231;-78
2022/01/21 09:21:12;;;;;;;;;;;;;;;4.74;55.85;99779.73;1750665;80;20446;-80
2022/01/21 09:23:38;;;;;;;;;;;;;;;4.53;56.34;99777.95;1752290;80;20611;-80
2022/01/21 09:26:04;;;;;;;;;;;;;;;4.71;56.24;99762.98;1751592;80;20185;-80
2022/01/21 09:28:29;;;;;;;;;;;;;;;4.61;56.27;99810.00;1754096;80;20469;-81
2022/01/21 09:30:55;;;;;;;;;;;;;;;4.58;56.39;99781.00;1757408;81;20510;-82
2022/01/21 09:33:20;;;;;;;;;;;;;;;4.48;57.06;99762.64;1750007;81;20144;-79
2022/01/21 09:35:46;;;;;;;;;;;;;;;4.77;56.78;99767.25;1757319;81;21094;-79
2022/01/21 09:38:11;;;;;;;;;;;;;;;4.45;57.42;99767.30;1755699;81;20146;-78
2022/01/21 09:40:41;;;;;;;;;;;;;;;4.39;57.81;99763.88;1755724;81;20211;-77
2022/01/21 09:43:07;;;;;;;;;;;;;;;4.28;57.76;99769.50;1739146;81;20189;-77
2022/01/21 09:45:32;;;;;;;;;;;;;;;4.54;57.61;99767.84;1739191;81;20199;-77
2022/01/21 09:47:59;;;;;;;;;;;;;;;4.20;57.95;99791.52;1761487;79;21100;-77
2022/01/21 09:50:25;;;;;;;;;;;;;;;4.67;57.16;99784.16;1749235;80;20290;-77
2022/01/21 09:52:52;;;;;;;;;;;;;;;4.73;57.06;99778.09;1757202;79;20179;-79
2022/01/21 09:55:21;;;;;;;;;;;;;;;4.99;56.40;99785.08;1739259;81;20206;-81
2022/01/21 09:57:49;;;;;;;;;;;;;;;4.41;57.07;99757.58;1763761;80;20189;-80
2022/01/21 10:00:15;;;;;;;;;;;;;;;4.36;57.85;99795.02;1767327;80;21109;-81
2022/01/21 10:02:42;;;;;;;;;;;;;;;4.58;56.62;99779.69;1766619;80;20127;-78
2022/01/21 10:05:08;;;;;;;;;;;;;;;4.94;56.26;99772.37;1770037;80;20132;-80
2022/01/21 10:07:34;;;;;;;;;;;;;;;4.60;56.74;99766.03;1769029;80;20201;-81
2022/01/21 10:10:06;;;;;;;;;;;;;;;4.76;56.71;99768.19;1771606;80;20202;-79
2022/01/21 10:12:27;;;;;;;;;;;;;;;4.84;56.33;99784.56;1759227;80;20122;-82
2022/01/21 10:14:54;;;;;;;;;;;;;;;4.72;56.61;99756.81;1767633;80;20721;-78
2022/01/21 10:17:20;;;;;;;;;;;;;;;4.92;55.99;99772.96;1761940;79;20534;-77
2022/01/21 10:19:48;;;;;;;;;;;;;;;4.76;56.08;99750.37;1771494;79;20123;-80
2022/01/21 10:22:17;;;;;;;;;;;;;;;4.44;56.36;99766.94;1766132;80;20121;-77
2022/01/21 10:25:01;;;;;;;;;;;;;;;4.54;56.39;99760.00;1755647;79;22051;-79
2022/01/21 10:27:32;;;;;;;;;;;;;;;4.57;56.38;99745.37;1759536;80;20148;-78
2022/01/21 10:29:57;;;;;;;;;;;;;;;4.54;56.15;99750.85;1772827;80;20549;-78
2022/01/21 10:32:39;;;;;;;;;;;;;;;4.57;55.77;99753.21;1744653;80;38289;-80
2022/01/21 10:35:10;;;;;;;;;;;;;;;4.23;56.28;99766.44;1774025;79;20203;-77
2022/01/21 10:37:36;;;;;;;;;;;;;;;4.38;55.53;99742.14;1767684;79;20145;-78
2022/01/21 10:40:08;;;;;;;;;;;;;;;4.72;55.53;99747.66;1772948;79;20159;-82
2022/01/21 10:42:34;;;;;;;;;;;;;;;4.89;54.67;99747.05;1774509;79;20161;-78
2022/01/21 10:45:00;;;;;;;;;;;;;;;4.51;55.38;99747.19;1771855;79;20161;-79
2022/01/21 10:47:30;;;;;;;;;;;;;;;4.74;54.89;99728.27;1776888;79;20553;-82
2022/01/21 10:50:11;;;;;;;;;;;;;;;4.54;55.18;99741.70;1769635;79;21200;-81
2022/01/21 10:52:42;;;;;;;;;;;;;;;4.26;55.50;99743.97;1779476;79;20131;-78
2022/01/21 10:55:25;;;;;;;;;;;;;;;4.78;54.44;99761.53;1774640;79;20699;-81
2022/01/21 10:58:12;;;;;;;;;;;;;;;4.27;55.70;99731.27;1774979;79;20184;-79
2022/01/21 11:00:37;;;;;;;;;;;;;;;4.53;55.50;99741.34;1774122;79;20128;-82
2022/01/21 11:03:13;;;;;;;;;;;;;;;4.68;54.11;99723.06;1775164;79;21154;-81
2022/01/21 11:05:43;;;;;;;;;;;;;;;4.64;52.92;99755.65;1771831;79;20202;-77
2022/01/21 11:08:09;;;;;;;;;;;;;;;4.56;53.50;99735.85;1773291;79;20129;-81
2022/01/21 11:10:37;;;;;;;;;;;;;;;4.76;52.49;99771.30;1776157;79;20159;-77
2022/01/21 11:13:18;;;;;;;;;;;;;;;4.61;53.01;99722.39;1755940;81;20324;-79
2022/01/21 11:15:46;;;;;;;;;;;;;;;4.57;53.01;99721.83;1759790;80;20144;-78
2022/01/21 11:18:15;;;;;;;;;;;;;;;4.66;52.84;99728.91;1751959;80;20247;-77
2022/01/21 11:20:41;;;;;;;;;;;;;;;4.99;52.41;99784.58;1757790;81;21004;-80
2022/01/21 11:23:08;;;;;;;;;;;;;;;4.94;52.36;99727.89;1756413;80;20169;-78
2022/01/21 11:25:42;;;;;;;;;;;;;;;4.96;51.79;99747.39;1755019;81;20169;-79
2022/01/21 11:28:10;;;;;;;;;;;;;;;4.50;52.16;99745.52;1747620;80;21779;-79
2022/01/21 11:30:36;;;;;;;;;;;;;;;4.72;52.07;99779.86;1722891;82;20180;-79
2022/01/21 11:33:01;;;;;;;;;;;;;;;4.93;51.81;99779.86;1724355;82;20174;-78
2022/01/21 11:35:29;;;;;;;;;;;;;;;4.92;52.09;99744.18;1729294;82;20159;-80
2022/01/21 11:37:55;;;;;;;;;;;;;;;4.99;52.18;99734.86;1728813;81;20481;-78
2022/01/21 11:40:21;;;;;;;;;;;;;;;4.72;52.15;99746.34;1711027;83;21071;-80
2022/01/21 11:42:46;;;;;;;;;;;;;;;4.56;52.93;99740.27;1708638;83;20136;-78
2022/01/21 11:45:30;;;;;;;;;;;;;;;4.83;52.80;99778.97;1713891;83;20363;-78
2022/01/21 11:48:00;;;;;;;;;;;;;;;4.96;51.97;99749.52;1709545;82;20136;-79
2022/01/21 11:50:18;;;;;;;;;;;;;;;4.92;52.16;99779.99;1723150;81;20595;-77
2022/01/21 11:52:44;;;;;;;;;;;;;;;5.07;51.84;99737.32;1726749;82;20160;-80
2022/01/21 11:55:30;;;;;;;;;;;;;;;5.14;52.01;99748.91;1725621;82;21075;-78
2022/01/21 11:58:11;;;;;;;;;;;;;;;4.82;52.74;99744.63;1731243;82;20136;-82
2022/01/21 12:00:37;;;;;;;;;;;;;;;4.74;52.62;99760.11;1720754;82;20182;-78
2022/01/21 12:03:02;;;;;;;;;;;;;;;4.90;52.95;99749.22;1727193;82;20250;-77
2022/01/21 12:05:28;;;;;;;;;;;;;;;4.98;52.74;99761.98;1710539;83;21112;-81
2022/01/21 12:07:54;;;;;;;;;;;;;;;4.82;53.30;99731.55;1729028;82;20140;-78
2022/01/21 12:10:26;;;;;;;;;;;;;;;5.00;52.79;99740.91;1728173;82;20190;-77
2022/01/21 12:12:59;;;;;;;;;;;;;;;4.91;52.93;99730.77;1707661;83;20398;-77
2022/01/21 12:15:46;;;;;;;;;;;;;;;4.71;52.98;99749.91;1744013;81;20579;-80
2022/01/21 12:18:05;;;;;;;;;;;;;;;4.71;53.08;99748.59;1733953;81;20138;-77
2022/01/21 12:20:32;;;;;;;;;;;;;;;5.07;53.04;99755.15;1729825;81;20227;-78
2022/01/21 12:23:09;;;;;;;;;;;;;;;4.83;53.40;99785.05;1712464;82;20192;-78
2022/01/21 12:25:34;;;;;;;;;;;;;;;5.37;52.12;99746.44;1745788;81;20167;-79
2022/01/21 12:28:16;;;;;;;;;;;;;;;5.42;52.24;99746.53;1726902;82;20159;-77
2022/01/21 12:30:53;;;;;;;;;;;;;;;5.36;52.08;99737.41;1729698;82;21222;-80
2022/01/21 12:33:18;;;;;;;;;;;;;;;5.16;52.54;99740.46;1733970;82;20171;-83
2022/01/21 12:35:45;;;;;;;;;;;;;;;4.89;51.97;99754.91;1734129;82;20197;-83
2022/01/21 12:40:56;;;;;;;;;;;;;;;5.22;51.74;99783.12;1729535;82;20209;-79
2022/01/21 12:43:39;;;;;;;;;;;;;;;5.08;51.79;99784.75;1734085;82;21161;-79
2022/01/21 12:46:06;;;;;;;;;;;;;;;5.09;51.45;99789.86;1734093;82;20284;-79
2022/01/21 12:48:34;;;;;;;;;;;;;;;5.20;51.19;99781.09;1732625;81;20367;-79
2022/01/21 12:51:07;;;;;;;;;;;;;;;4.91;51.59;99793.56;1730649;82;20183;-77
2022/01/21 12:53:44;;;;;;;;;;;;;;;4.87;50.83;99773.84;1716623;82;20086;-78
2022/01/21 12:56:02;;;;;;;;;;;;;;;5.09;50.61;99783.81;1733671;81;20162;-80
2022/01/21 12:58:30;;;;;;;;;;;;;;;4.67;51.51;99798.55;1729871;81;20171;-77
2022/01/21 13:01:00;;;;;;;;;;;;;;;4.48;52.09;99753.48;1731487;82;20195;-80
2022/01/21 13:03:35;;;;;;;;;;;;;;;4.87;51.26;99745.06;1733283;81;20368;-80
2022/01/21 13:06:24;;;;;;;;;;;;;;;4.87;51.14;99746.86;1730396;81;20134;-83
2022/01/21 13:08:56;;;;;;;;;;;;;;;4.86;51.61;99772.17;1731190;82;21108;-80
2022/01/21 13:11:24;;;;;;;;;;;;;;;4.78;52.32;99783.77;1732434;81;20156;-78
2022/01/21 13:13:52;;;;;;;;;;;;;;;5.01;51.53;99776.11;1729531;81;20131;-80
2022/01/21 13:16:25;;;;;;;;;;;;;;;4.55;53.31;99792.20;1717225;81;20164;-80
2022/01/21 13:19:00;;;;;;;;;;;;;;;4.73;53.42;99787.25;1729870;82;20469;-76
2022/01/21 13:21:25;;;;;;;;;;;;;;;4.46;53.96;99800.34;1729799;81;21905;-79
2022/01/21 13:23:56;;;;;;;;;;;;;;;4.68;54.04;99789.76;1730397;82;20162;-76
2022/01/21 13:26:23;;;;;;;;;;;;;;;4.41;54.88;99769.34;1733150;81;20252;-82
2022/01/21 13:29:08;;;;;;;;;;;;;;;4.14;55.33;99781.06;1732675;80;20173;-77
2022/01/21 13:31:45;;;;;;;;;;;;;;;4.23;55.57;99781.30;1765586;79;20179;-79
2022/01/21 13:34:13;;;;;;;;;;;;;;;4.45;54.94;99785.59;1751689;79;21906;-79
2022/01/21 13:36:55;;;;;;;;;;;;;;;4.10;55.78;99776.21;1758264;80;20533;-79
2022/01/21 13:39:33;;;;;;;;;;;;;;;4.06;55.25;99789.19;1762438;80;20192;-78
2022/01/21 13:42:02;;;;;;;;;;;;;;;4.11;55.64;99779.19;1762182;79;20433;-79
2022/01/21 13:44:32;;;;;;;;;;;;;;;3.87;55.98;99823.77;1765156;80;20176;-80
2022/01/21 13:46:58;;;;;;;;;;;;;;;4.28;55.03;99798.25;1769516;79;21181;-78
2022/01/21 13:49:24;;;;;;;;;;;;;;;4.33;55.11;99795.75;1758802;80;20217;-84